createdAt,value
2019-06-27T00:02:24.348Z,27.70
2019-06-27T00:04:55.497Z,27.70
2019-06-27T00:07:25.955Z,27.60
2019-06-27T00:09:56.729Z,27.60
2019-06-27T00:12:27.519Z,27.50
2019-06-27T00:14:58.656Z,27.40
2019-06-27T00:17:28.806Z,27.40
2019-06-27T00:20:00.537Z,27.30
2019-06-27T00:22:31.285Z,27.30
2019-06-27T00:25:02.633Z,27.30
2019-06-27T00:27:33.858Z,27.20
2019-06-27T00:30:04.486Z,27.10
2019-06-27T00:32:35.257Z,27.10
2019-06-27T00:35:07.639Z,27.10
2019-06-27T00:37:38.115Z,27.00
2019-06-27T00:40:09.124Z,27.00
2019-06-27T00:42:40.272Z,27.00
2019-06-27T00:45:11.841Z,26.90
2019-06-27T00:47:42.357Z,26.90
2019-06-27T00:50:13.925Z,26.80
2019-06-27T00:52:44.461Z,26.80
2019-06-27T00:55:15.335Z,26.80
2019-06-27T00:57:46.547Z,26.80
2019-06-27T01:00:18.189Z,26.80
2019-06-27T01:02:49.046Z,26.70
2019-06-27T01:05:18.925Z,26.70
2019-06-27T01:07:49.906Z,26.70
2019-06-27T01:10:21.945Z,26.70
2019-06-27T01:12:52.821Z,26.60
2019-06-27T01:15:24.210Z,26.60
2019-06-27T01:17:55.121Z,26.70
2019-06-27T01:20:25.515Z,26.70
2019-06-27T01:22:56.191Z,26.60
2019-06-27T01:25:27.539Z,26.60
2019-06-27T01:27:57.607Z,26.60
2019-06-27T01:30:29.637Z,26.60
2019-06-27T01:33:00.175Z,26.60
2019-06-27T01:35:31.322Z,26.50
2019-06-27T01:38:03.714Z,26.50
2019-06-27T01:40:34.733Z,26.50
2019-06-27T01:43:05.785Z,26.50
2019-06-27T01:45:42.058Z,26.50
2019-06-27T01:48:12.117Z,26.50
2019-06-27T01:50:42.583Z,26.50
2019-06-27T01:53:13.041Z,26.40
2019-06-27T01:55:43.579Z,26.30
2019-06-27T01:58:13.697Z,26.20
2019-06-27T02:00:44.137Z,26.20
2019-06-27T02:03:14.975Z,26.20
2019-06-27T02:05:45.717Z,26.10
2019-06-27T02:08:16.039Z,26.10
2019-06-27T02:10:47.212Z,26.10
2019-06-27T02:13:17.949Z,26.00
2019-06-27T02:15:48.674Z,26.00
2019-06-27T02:18:19.157Z,26.00
2019-06-27T02:20:50.158Z,26.00
2019-06-27T02:23:21.299Z,25.90
2019-06-27T02:25:51.834Z,25.90
2019-06-27T02:28:22.985Z,25.90
2019-06-27T02:30:53.389Z,25.90
2019-06-27T02:33:23.564Z,25.90
2019-06-27T02:35:54.998Z,25.80
2019-06-27T02:38:25.878Z,25.80
2019-06-27T02:40:58.724Z,25.80
2019-06-27T02:43:29.109Z,25.70
2019-06-27T02:46:00.030Z,25.70
2019-06-27T02:48:30.331Z,25.70
2019-06-27T02:51:00.866Z,25.60
2019-06-27T02:53:31.612Z,25.60
2019-06-27T02:56:02.961Z,25.60
2019-06-27T02:58:33.902Z,25.60
2019-06-27T03:01:04.051Z,25.60
2019-06-27T03:03:35.176Z,25.50
2019-06-27T03:06:06.534Z,25.50
2019-06-27T03:08:37.683Z,25.50
2019-06-27T03:11:08.635Z,25.50
2019-06-27T03:13:39.366Z,25.50
2019-06-27T03:16:10.701Z,25.50
2019-06-27T03:18:41.662Z,25.50
2019-06-27T03:21:13.233Z,25.50
2019-06-27T03:23:43.680Z,25.50
2019-06-27T03:26:14.692Z,25.50
2019-06-27T03:28:53.250Z,25.50
2019-06-27T03:31:17.738Z,25.50
2019-06-27T03:33:48.144Z,25.50
2019-06-27T03:36:18.887Z,25.50
2019-06-27T03:38:49.625Z,25.50
2019-06-27T03:41:20.345Z,25.40
2019-06-27T03:43:50.823Z,25.40
2019-06-27T03:46:21.016Z,25.40
2019-06-27T03:48:52.171Z,25.40
2019-06-27T03:51:22.296Z,25.40
2019-06-27T03:53:53.039Z,25.40
2019-06-27T03:56:23.930Z,25.40
2019-06-27T03:59:11.460Z,25.40
2019-06-27T04:01:26.547Z,25.30
2019-06-27T04:03:57.425Z,25.30
2019-06-27T04:06:27.899Z,25.30
2019-06-27T04:08:58.667Z,25.30
2019-06-27T04:11:29.334Z,25.30
2019-06-27T04:14:00.103Z,25.40
2019-06-27T04:16:37.470Z,25.30
2019-06-27T04:19:09.027Z,25.40
2019-06-27T04:21:39.762Z,25.30
2019-06-27T04:24:10.868Z,25.40
2019-06-27T04:26:48.246Z,25.40
2019-06-27T04:29:33.366Z,25.40
2019-06-27T04:31:59.113Z,25.40
2019-06-27T04:34:34.883Z,25.40
2019-06-27T04:37:06.527Z,25.40
2019-06-27T04:39:37.280Z,25.50
2019-06-27T04:42:07.156Z,25.50
2019-06-27T04:44:37.243Z,25.50
2019-06-27T04:47:08.247Z,25.50
2019-06-27T04:49:38.598Z,25.50
2019-06-27T04:52:08.708Z,25.50
2019-06-27T04:54:39.240Z,25.50
2019-06-27T04:57:10.176Z,25.50
2019-06-27T04:59:52.485Z,25.60
2019-06-27T05:02:13.913Z,25.60
2019-06-27T05:04:44.718Z,25.60
2019-06-27T05:07:15.810Z,25.60
2019-06-27T05:09:45.826Z,25.60
2019-06-27T05:12:16.202Z,25.70
2019-06-27T05:14:46.789Z,25.70
2019-06-27T05:17:18.146Z,25.80
2019-06-27T05:19:49.119Z,25.80
2019-06-27T05:22:19.577Z,25.90
2019-06-27T05:24:50.744Z,25.90
2019-06-27T05:27:22.323Z,25.90
2019-06-27T05:30:08.110Z,26.00
2019-06-27T05:32:27.276Z,26.10
2019-06-27T05:34:57.819Z,26.10
2019-06-27T05:37:28.769Z,26.20
2019-06-27T05:39:58.936Z,26.20
2019-06-27T05:42:29.621Z,26.20
2019-06-27T05:45:00.377Z,26.20
2019-06-27T05:47:31.532Z,26.20
2019-06-27T05:50:02.346Z,26.30
2019-06-27T05:52:33.412Z,26.30
2019-06-27T05:55:03.946Z,26.40
2019-06-27T05:57:35.699Z,26.40
2019-06-27T06:00:07.161Z,26.40
2019-06-27T06:02:37.745Z,26.50
2019-06-27T06:05:09.780Z,26.50
2019-06-27T06:07:40.355Z,26.60
2019-06-27T06:10:11.143Z,26.60
2019-06-27T06:12:41.294Z,26.70
2019-06-27T06:15:13.482Z,26.70
2019-06-27T06:17:43.872Z,26.80
2019-06-27T06:20:16.236Z,26.80
2019-06-27T06:22:46.979Z,26.90
2019-06-27T06:25:17.938Z,27.00
2019-06-27T06:27:48.458Z,27.10
2019-06-27T06:30:19.170Z,27.10
2019-06-27T06:32:50.047Z,27.10
2019-06-27T06:35:21.099Z,27.20
2019-06-27T06:37:52.047Z,27.30
2019-06-27T06:40:22.948Z,27.30
2019-06-27T06:42:56.994Z,27.30
2019-06-27T06:45:26.500Z,27.30
2019-06-27T06:47:57.267Z,27.30
2019-06-27T06:50:27.970Z,27.30
2019-06-27T06:52:59.324Z,27.50
2019-06-27T06:55:29.780Z,27.60
2019-06-27T06:58:01.018Z,27.60
2019-06-27T07:00:31.758Z,27.60
2019-06-27T07:03:02.684Z,27.70
2019-06-27T07:05:34.052Z,27.80
2019-06-27T07:08:04.977Z,27.90
2019-06-27T07:10:35.506Z,27.90
2019-06-27T07:13:06.096Z,27.90
2019-06-27T07:15:36.598Z,27.90
2019-06-27T07:18:06.957Z,28.00
2019-06-27T07:20:37.913Z,27.90
2019-06-27T07:23:08.623Z,27.90
2019-06-27T07:25:39.560Z,28.00
2019-06-27T07:28:12.479Z,28.00
2019-06-27T07:30:42.710Z,28.00
2019-06-27T07:33:13.458Z,28.10
2019-06-27T07:35:44.222Z,28.10
2019-06-27T07:38:14.891Z,28.20
2019-06-27T07:40:45.506Z,28.30
2019-06-27T07:43:15.516Z,28.40
2019-06-27T07:45:46.028Z,28.50
2019-06-27T07:48:16.566Z,28.60
2019-06-27T07:50:47.880Z,28.70
2019-06-27T07:53:19.144Z,28.80
2019-06-27T07:55:49.670Z,28.90
2019-06-27T07:58:21.634Z,29.20
2019-06-27T08:00:52.777Z,29.40
2019-06-27T08:03:22.942Z,29.60
2019-06-27T08:05:54.061Z,29.70
2019-06-27T08:08:24.864Z,29.70
2019-06-27T08:10:55.759Z,29.80
2019-06-27T08:13:26.104Z,29.70
2019-06-27T08:15:57.213Z,29.40
2019-06-27T08:18:28.483Z,29.50
2019-06-27T08:20:59.303Z,29.50
2019-06-27T08:23:40.981Z,29.60
2019-06-27T08:26:02.768Z,29.60
2019-06-27T08:28:33.660Z,29.80
2019-06-27T08:31:05.535Z,29.90
2019-06-27T08:33:36.165Z,30.10
2019-06-27T08:36:07.227Z,30.20
2019-06-27T08:38:38.562Z,30.30
2019-06-27T08:41:09.102Z,30.40
2019-06-27T08:43:39.905Z,30.40
2019-06-27T08:46:10.378Z,30.30
2019-06-27T08:48:41.154Z,30.30
2019-06-27T08:51:11.989Z,30.30
2019-06-27T08:53:43.000Z,30.40
2019-06-27T08:56:14.145Z,30.50
2019-06-27T08:58:44.525Z,30.60
2019-06-27T09:01:15.841Z,30.70
2019-06-27T09:03:45.991Z,30.80
2019-06-27T09:06:16.898Z,30.80
2019-06-27T09:08:47.855Z,30.80
2019-06-27T09:11:19.826Z,30.70
2019-06-27T09:13:50.347Z,30.60
2019-06-27T09:16:21.499Z,30.60
2019-06-27T09:18:52.234Z,30.60
2019-06-27T09:21:23.132Z,30.70
2019-06-27T09:23:54.330Z,30.80
2019-06-27T09:26:25.206Z,30.90
2019-06-27T09:28:56.213Z,31.10
2019-06-27T09:31:27.367Z,31.20
2019-06-27T09:33:57.851Z,31.30
2019-06-27T09:36:28.640Z,31.50
2019-06-27T09:38:59.998Z,31.60
2019-06-27T09:41:30.975Z,31.70
2019-06-27T09:44:02.086Z,31.70
2019-06-27T09:46:32.543Z,31.50
2019-06-27T09:49:03.972Z,31.60
2019-06-27T09:51:35.120Z,31.80
2019-06-27T09:54:06.473Z,32.00
2019-06-27T09:56:39.859Z,32.10
2019-06-27T09:59:10.279Z,32.20
2019-06-27T10:01:40.634Z,32.30
2019-06-27T10:04:11.357Z,32.50
2019-06-27T10:06:42.626Z,32.60
2019-06-27T10:09:13.190Z,32.60
2019-06-27T10:11:42.908Z,32.80
2019-06-27T10:14:14.021Z,32.90
2019-06-27T10:16:45.168Z,33.10
2019-06-27T10:19:16.114Z,33.30
2019-06-27T10:21:46.846Z,33.60
2019-06-27T10:24:17.797Z,34.00
2019-06-27T10:26:49.771Z,34.40
2019-06-27T10:29:20.686Z,34.60
2019-06-27T10:31:51.415Z,35.00
2019-06-27T10:34:22.395Z,35.30
2019-06-27T10:36:52.733Z,35.80
2019-06-27T10:39:22.903Z,36.20
2019-06-27T10:41:53.927Z,36.70
2019-06-27T10:44:24.879Z,37.40
2019-06-27T10:46:55.477Z,38.00
2019-06-27T10:49:26.127Z,38.50
2019-06-27T10:51:56.959Z,39.10
2019-06-27T10:54:27.902Z,39.50
2019-06-27T10:56:58.844Z,39.70
2019-06-27T10:59:29.242Z,40.00
2019-06-27T11:02:00.124Z,40.40
2019-06-27T11:04:30.454Z,40.80
2019-06-27T11:07:00.708Z,40.70
2019-06-27T11:09:31.157Z,40.30
2019-06-27T11:12:02.828Z,40.10
2019-06-27T11:14:33.967Z,40.50
2019-06-27T11:17:04.965Z,40.70
2019-06-27T11:19:51.276Z,40.40
2019-06-27T11:22:06.985Z,40.20
2019-06-27T11:24:37.592Z,40.00
2019-06-27T11:27:08.539Z,40.20
2019-06-27T11:29:39.213Z,40.50
2019-06-27T11:32:10.409Z,40.80
2019-06-27T11:34:41.365Z,40.90
2019-06-27T11:37:11.897Z,41.50
2019-06-27T11:39:42.577Z,42.20
2019-06-27T11:42:12.953Z,42.60
2019-06-27T11:44:43.508Z,42.90
2019-06-27T11:47:14.236Z,43.10
2019-06-27T11:49:44.247Z,43.00
2019-06-27T11:52:15.299Z,42.60
2019-06-27T11:54:45.993Z,42.50
2019-06-27T11:57:16.713Z,42.80
2019-06-27T11:59:47.619Z,42.90
2019-06-27T12:02:18.269Z,42.50
2019-06-27T12:04:49.209Z,42.40
2019-06-27T12:07:19.741Z,42.60
2019-06-27T12:09:50.091Z,43.00
2019-06-27T12:12:20.821Z,43.40
2019-06-27T12:14:50.875Z,43.70
2019-06-27T12:17:21.677Z,44.00
2019-06-27T12:19:52.455Z,44.10
2019-06-27T12:22:25.817Z,43.80
2019-06-27T12:24:56.173Z,43.10
2019-06-27T12:27:27.289Z,42.90
2019-06-27T12:29:58.347Z,42.80
2019-06-27T12:32:28.915Z,43.40
2019-06-27T12:35:05.111Z,44.00
2019-06-27T12:37:39.534Z,44.40
2019-06-27T12:40:09.160Z,44.60
2019-06-27T12:42:40.332Z,45.10
2019-06-27T12:45:12.711Z,45.50
2019-06-27T12:47:43.657Z,45.80
2019-06-27T12:50:15.850Z,45.40
2019-06-27T12:52:46.988Z,45.10
2019-06-27T12:55:17.119Z,44.80
2019-06-27T12:57:48.259Z,44.50
2019-06-27T13:00:19.205Z,43.90
2019-06-27T13:02:49.537Z,43.70
2019-06-27T13:05:20.832Z,44.00
2019-06-27T13:07:51.819Z,44.30
2019-06-27T13:10:23.786Z,44.80
2019-06-27T13:12:54.236Z,45.00
2019-06-27T13:15:25.611Z,45.00
2019-06-27T13:17:57.848Z,45.20
2019-06-27T13:20:28.745Z,45.30
2019-06-27T13:22:58.984Z,45.60
2019-06-27T13:25:29.659Z,45.80
2019-06-27T13:28:01.419Z,45.60
2019-06-27T13:30:35.235Z,45.60
2019-06-27T13:33:05.379Z,45.80
2019-06-27T13:35:38.148Z,45.80
2019-06-27T13:38:08.009Z,45.50
2019-06-27T13:40:38.775Z,45.30
2019-06-27T13:43:08.922Z,45.30
2019-06-27T13:45:39.693Z,45.40
2019-06-27T13:48:10.598Z,45.10
2019-06-27T13:50:42.938Z,45.20
2019-06-27T13:53:13.724Z,45.20
2019-06-27T13:55:44.007Z,45.30
2019-06-27T13:58:15.339Z,45.40
2019-06-27T14:00:47.785Z,45.40
2019-06-27T14:03:18.321Z,45.40
2019-06-27T14:05:48.797Z,45.00
2019-06-27T14:08:19.071Z,44.30
2019-06-27T14:10:49.669Z,43.60
2019-06-27T14:13:20.789Z,43.40
2019-06-27T14:15:51.411Z,43.00
2019-06-27T14:18:21.867Z,42.40
2019-06-27T14:20:52.095Z,42.00
2019-06-27T14:23:22.795Z,41.30
2019-06-27T14:25:53.744Z,40.60
2019-06-27T14:28:24.884Z,39.90
2019-06-27T14:30:56.037Z,39.40
2019-06-27T14:33:26.978Z,39.20
2019-06-27T14:35:57.143Z,38.90
2019-06-27T14:38:27.166Z,38.60
2019-06-27T14:40:57.969Z,38.40
2019-06-27T14:43:29.123Z,38.20
2019-06-27T14:45:59.444Z,38.20
2019-06-27T14:48:30.417Z,38.20
2019-06-27T14:51:01.354Z,38.20
2019-06-27T14:53:31.463Z,38.00
2019-06-27T14:56:02.414Z,38.00
2019-06-27T14:58:33.663Z,37.90
2019-06-27T15:01:08.543Z,37.80
2019-06-27T15:03:37.489Z,37.80
2019-06-27T15:06:07.989Z,37.80
2019-06-27T15:08:39.253Z,37.70
2019-06-27T15:11:09.921Z,37.70
2019-06-27T15:13:40.249Z,37.50
2019-06-27T15:16:12.380Z,37.40
2019-06-27T15:18:43.068Z,37.20
2019-06-27T15:21:14.100Z,37.10
2019-06-27T15:23:45.258Z,37.10
2019-06-27T15:26:15.793Z,36.90
2019-06-27T15:28:46.606Z,36.70
2019-06-27T15:31:17.621Z,36.60
2019-06-27T15:33:48.139Z,36.50
2019-06-27T15:36:19.357Z,36.60
2019-06-27T15:38:49.876Z,36.70
2019-06-27T15:41:21.040Z,36.60
2019-06-27T15:43:51.910Z,36.50
2019-06-27T15:46:22.067Z,36.40
2019-06-27T15:48:52.242Z,36.30
2019-06-27T15:51:22.979Z,36.20
2019-06-27T15:53:53.425Z,36.00
2019-06-27T15:56:23.993Z,36.00
2019-06-27T15:58:54.573Z,35.90
2019-06-27T16:01:25.214Z,35.80
2019-06-27T16:03:55.844Z,35.70
2019-06-27T16:06:26.590Z,35.60
2019-06-27T16:08:57.343Z,35.40
2019-06-27T16:11:28.469Z,35.40
2019-06-27T16:13:58.800Z,35.60
2019-06-27T16:16:28.869Z,35.60
2019-06-27T16:18:59.994Z,35.50
2019-06-27T16:21:30.620Z,35.50
2019-06-27T16:24:01.756Z,35.50
2019-06-27T16:26:33.492Z,35.50
2019-06-27T16:29:03.648Z,35.50
2019-06-27T16:31:33.937Z,35.50
2019-06-27T16:34:04.794Z,35.50
2019-06-27T16:36:35.059Z,35.40
2019-06-27T16:39:07.200Z,35.20
2019-06-27T16:41:37.565Z,35.10
2019-06-27T16:44:08.449Z,34.90
2019-06-27T16:46:39.230Z,34.70
2019-06-27T16:49:09.817Z,34.70
2019-06-27T16:51:43.006Z,34.60
2019-06-27T16:54:13.712Z,34.60
2019-06-27T16:56:44.655Z,34.60
2019-06-27T16:59:14.767Z,34.60
2019-06-27T17:01:46.121Z,34.50
2019-06-27T17:04:17.063Z,34.50
2019-06-27T17:06:48.010Z,34.50
2019-06-27T17:09:18.919Z,34.30
2019-06-27T17:11:49.283Z,34.20
2019-06-27T17:14:19.333Z,34.10
2019-06-27T17:16:50.365Z,34.10
2019-06-27T17:19:21.613Z,34.10
2019-06-27T17:21:52.041Z,34.10
2019-06-27T17:24:22.571Z,34.10
2019-06-27T17:26:53.049Z,34.00
2019-06-27T17:29:23.247Z,33.90
2019-06-27T17:31:53.559Z,33.80
2019-06-27T17:34:24.037Z,33.80
2019-06-27T17:36:58.011Z,33.70
2019-06-27T17:39:28.605Z,33.70
2019-06-27T17:41:59.215Z,33.70
2019-06-27T17:44:34.924Z,33.70
2019-06-27T17:47:05.996Z,33.60
2019-06-27T17:49:36.739Z,33.50
2019-06-27T17:52:07.643Z,33.40
2019-06-27T17:54:38.215Z,33.30
2019-06-27T17:57:08.941Z,33.30
2019-06-27T17:59:39.684Z,33.20
2019-06-27T18:02:10.417Z,33.00
2019-06-27T18:04:41.290Z,32.90
2019-06-27T18:07:14.646Z,32.80
2019-06-27T18:09:44.392Z,32.70
2019-06-27T18:12:14.541Z,32.70
2019-06-27T18:14:45.947Z,32.60
2019-06-27T18:17:16.699Z,32.50
2019-06-27T18:19:47.212Z,32.40
2019-06-27T18:22:17.968Z,32.40
2019-06-27T18:24:48.639Z,32.30
2019-06-27T18:27:19.658Z,32.30
2019-06-27T18:29:50.379Z,32.20
2019-06-27T18:32:21.131Z,32.20
2019-06-27T18:34:51.874Z,32.10
2019-06-27T18:37:29.546Z,31.90
2019-06-27T18:39:55.466Z,31.80
2019-06-27T18:42:26.185Z,31.70
2019-06-27T18:44:57.300Z,31.60
2019-06-27T18:47:28.170Z,31.50
2019-06-27T18:49:58.975Z,31.40
2019-06-27T18:52:29.914Z,31.20
2019-06-27T18:54:59.910Z,31.20
2019-06-27T18:57:30.990Z,31.00
2019-06-27T19:00:01.359Z,31.00
2019-06-27T19:02:32.259Z,30.90
2019-06-27T19:05:05.257Z,30.80
2019-06-27T19:07:45.008Z,30.70
2019-06-27T19:10:07.247Z,30.60
2019-06-27T19:12:38.246Z,30.50
2019-06-27T19:15:09.435Z,30.40
2019-06-27T19:17:40.390Z,30.30
2019-06-27T19:20:38.360Z,30.20
2019-06-27T19:23:26.911Z,30.00
2019-06-27T19:26:00.059Z,29.80
2019-06-27T19:28:30.693Z,29.70
2019-06-27T19:31:02.016Z,29.60
2019-06-27T19:33:33.463Z,29.40
2019-06-27T19:36:03.650Z,29.30
2019-06-27T19:38:35.442Z,29.20
2019-06-27T19:41:06.317Z,29.00
2019-06-27T19:43:37.131Z,28.90
2019-06-27T19:46:08.892Z,28.80
2019-06-27T19:48:40.653Z,28.60
2019-06-27T19:51:11.530Z,28.50
2019-06-27T19:53:42.072Z,28.40
2019-06-27T19:56:12.468Z,28.30
2019-06-27T19:58:42.998Z,28.10
2019-06-27T20:01:14.108Z,28.00
2019-06-27T20:03:45.104Z,28.00
2019-06-27T20:06:15.678Z,27.90
2019-06-27T20:08:46.326Z,27.80
2019-06-27T20:11:17.508Z,27.70
2019-06-27T20:13:48.011Z,27.60
2019-06-27T20:16:18.788Z,27.50
2019-06-27T20:18:49.936Z,27.40
2019-06-27T20:21:20.878Z,27.30
2019-06-27T20:23:51.817Z,27.20
2019-06-27T20:26:22.642Z,27.10
2019-06-27T20:28:53.706Z,27.00
2019-06-27T20:31:23.830Z,26.90
2019-06-27T20:33:54.582Z,26.80
2019-06-27T20:36:25.313Z,26.70
2019-06-27T20:38:56.675Z,26.70
2019-06-27T20:41:29.411Z,26.60
2019-06-27T20:43:59.987Z,26.50
2019-06-27T20:46:30.623Z,26.40
2019-06-27T20:49:01.296Z,26.40
2019-06-27T20:51:32.204Z,26.30
2019-06-27T20:54:02.941Z,26.30
2019-06-27T20:56:33.890Z,26.20
2019-06-27T20:59:04.618Z,26.10
2019-06-27T21:01:35.778Z,26.10
2019-06-27T21:04:06.317Z,26.10
2019-06-27T21:06:37.038Z,26.00
2019-06-27T21:09:07.522Z,26.00
2019-06-27T21:11:38.460Z,25.90
2019-06-27T21:14:09.410Z,25.80
2019-06-27T21:16:39.602Z,25.80
2019-06-27T21:19:09.874Z,25.70
2019-06-27T21:21:40.654Z,25.60
2019-06-27T21:24:12.835Z,25.60
2019-06-27T21:26:43.350Z,25.60
2019-06-27T21:29:16.973Z,25.50
2019-06-27T21:31:45.598Z,25.40
2019-06-27T21:34:16.816Z,25.40
2019-06-27T21:36:47.750Z,25.30
2019-06-27T21:39:18.907Z,25.20
2019-06-27T21:41:49.644Z,25.20
2019-06-27T21:44:19.975Z,25.10
2019-06-27T21:46:50.666Z,25.10
2019-06-27T21:49:21.684Z,25.00
2019-06-27T21:51:52.405Z,25.00
2019-06-27T21:54:23.500Z,25.00
2019-06-27T21:56:54.286Z,24.90
2019-06-27T21:59:25.654Z,24.90
2019-06-27T22:01:56.689Z,24.80
2019-06-27T22:04:30.485Z,24.80
2019-06-27T22:07:00.285Z,24.80
2019-06-27T22:09:31.282Z,24.70
2019-06-27T22:12:01.998Z,24.60
2019-06-27T22:14:32.942Z,24.50
2019-06-27T22:17:03.736Z,24.40
2019-06-27T22:19:35.461Z,24.30
2019-06-27T22:22:05.978Z,24.20
2019-06-27T22:24:36.920Z,24.10
2019-06-27T22:27:07.390Z,24.10
2019-06-27T22:29:38.617Z,24.00
2019-06-27T22:32:09.342Z,24.00
2019-06-27T22:34:40.692Z,23.90
2019-06-27T22:37:12.699Z,23.90
2019-06-27T22:40:01.224Z,23.90
2019-06-27T22:42:49.572Z,23.80
2019-06-27T22:45:37.683Z,23.80
2019-06-27T22:48:13.250Z,23.70
2019-06-27T22:51:03.811Z,23.60
2019-06-27T22:53:39.031Z,23.60
2019-06-27T22:56:10.190Z,23.50
2019-06-27T22:58:41.113Z,23.40
2019-06-27T23:01:11.716Z,23.30
2019-06-27T23:03:42.403Z,23.30
2019-06-27T23:06:13.158Z,23.20
2019-06-27T23:08:44.209Z,23.10
2019-06-27T23:11:15.223Z,23.10
2019-06-27T23:13:46.477Z,23.00
2019-06-27T23:16:17.715Z,22.90
2019-06-27T23:18:48.882Z,22.90
2019-06-27T23:21:19.678Z,22.90
2019-06-27T23:23:50.558Z,22.80
2019-06-27T23:26:21.702Z,22.80
2019-06-27T23:28:52.253Z,22.70
2019-06-27T23:31:23.184Z,22.70
2019-06-27T23:33:53.308Z,22.60
2019-06-27T23:36:23.634Z,22.60
2019-06-27T23:38:53.865Z,22.50
2019-06-27T23:41:24.852Z,22.50
2019-06-27T23:43:55.389Z,22.50
2019-06-27T23:46:42.480Z,22.40
2019-06-27T23:49:14.127Z,22.40
2019-06-27T23:51:45.470Z,22.30
2019-06-27T23:54:16.212Z,22.30
2019-06-27T23:56:46.704Z,22.20
2019-06-27T23:59:17.913Z,22.20
